Time;durP1;ratioP1;P1;durP2;ratioP2;P2;SDS_P1;SDS_P2;PMS_P1;PMS_P2;Temp;Humidity;BMP_temperature;BMP_pressure;BME280_temperature;BME280_humidity;BME280_pressure;Samples;Min_cycle;Max_cycle;Signal;HPM_P1;HPM_P2
2021/11/29 00:00:18;;;;;;;;;1.00;1.00;;;;;;;;5015293;28;11516;-83
2021/11/29 00:02:55;;;;;;;;;1.00;1.00;;;;;;;;5008372;28;11514;-81
2021/11/29 00:05:24;;;;;;;;;4.25;4.00;;;;;;;;5007417;28;11533;-80
2021/11/29 00:07:51;;;;;;;;;2.00;1.00;;;;;;;;5025349;28;11523;-81
2021/11/29 00:10:19;;;;;;;;;4.00;1.75;;;;;;;;4992038;28;11637;-81
2021/11/29 00:12:48;;;;;;;;;2.00;2.00;;;;;;;;5024142;28;11638;-78
2021/11/29 00:15:16;;;;;;;;;1.00;1.00;;;;;;;;5028628;28;11626;-81
2021/11/29 00:17:44;;;;;;;;;1.50;1.50;;;;;;;;5023150;28;11507;-82
2021/11/29 00:20:12;;;;;;;;;1.75;1.00;;;;;;;;5011876;28;11491;-80
2021/11/29 00:22:40;;;;;;;;;4.25;4.25;;;;;;;;5015190;28;11536;-81
2021/11/29 00:25:08;;;;;;;;;1.25;1.25;;;;;;;;5016275;28;11611;-82
2021/11/29 00:27:36;;;;;;;;;1.50;1.50;;;;;;;;5024416;28;11644;-80
2021/11/29 00:30:07;;;;;;;;;4.75;2.00;;;;;;;;5027399;28;11530;-83
2021/11/29 00:32:34;;;;;;;;;4.00;2.00;;;;;;;;5020322;28;11506;-80
2021/11/29 00:35:02;;;;;;;;;4.50;4.50;;;;;;;;5023885;28;11523;-84
2021/11/29 00:37:29;;;;;;;;;3.50;3.50;;;;;;;;5027129;28;11512;-84
2021/11/29 00:39:57;;;;;;;;;1.00;1.00;;;;;;;;5025555;28;11523;-87
2021/11/29 00:42:24;;;;;;;;;2.50;2.50;;;;;;;;5031963;28;11481;-85
2021/11/29 00:44:52;;;;;;;;;0.50;0.50;;;;;;;;5036170;28;11599;-85
2021/11/29 00:47:20;;;;;;;;;1.00;1.00;;;;;;;;5046455;28;11480;-84
2021/11/29 00:49:48;;;;;;;;;4.50;3.00;;;;;;;;5022119;28;11536;-83
2021/11/29 00:52:15;;;;;;;;;2.00;2.00;;;;;;;;5032516;28;11530;-85
2021/11/29 00:54:42;;;;;;;;;7.50;2.50;;;;;;;;5019665;28;11547;-84
2021/11/29 00:57:09;;;;;;;;;5.00;3.00;;;;;;;;5024625;28;11521;-84
2021/11/29 00:59:37;;;;;;;;;6.50;3.00;;;;;;;;5034030;28;11532;-83
2021/11/29 01:02:05;;;;;;;;;4.25;4.00;;;;;;;;5026137;28;11507;-86
2021/11/29 01:04:34;;;;;;;;;2.00;2.00;;;;;;;;5029728;28;11576;-86
2021/11/29 01:07:01;;;;;;;;;7.50;5.75;;;;;;;;5037976;28;12278;-82
2021/11/29 01:09:28;;;;;;;;;4.25;4.00;;;;;;;;5060457;28;11568;-83
2021/11/29 01:11:56;;;;;;;;;8.75;8.75;;;;;;;;5045480;28;11660;-83
2021/11/29 01:14:23;;;;;;;;;1.75;1.75;;;;;;;;5045157;28;11653;-82
2021/11/29 01:16:51;;;;;;;;;4.75;4.75;;;;;;;;5024507;28;11563;-82
2021/11/29 01:19:18;;;;;;;;;4.00;4.00;;;;;;;;5052430;28;11710;-84
2021/11/29 01:21:47;;;;;;;;;15.00;12.75;;;;;;;;5044730;28;11560;-84
2021/11/29 01:24:14;;;;;;;;;3.50;3.50;;;;;;;;5044493;28;11628;-83
2021/11/29 01:26:42;;;;;;;;;2.00;2.00;;;;;;;;5046911;28;11677;-84
2021/11/29 01:29:09;;;;;;;;;4.50;2.00;;;;;;;;5044575;28;11681;-82
2021/11/29 01:31:36;;;;;;;;;6.00;4.75;;;;;;;;5044804;28;11614;-81
2021/11/29 01:34:04;;;;;;;;;2.00;2.00;;;;;;;;5043109;28;11583;-82
2021/11/29 01:36:31;;;;;;;;;4.00;4.00;;;;;;;;5048099;28;11711;-80
2021/11/29 01:39:00;;;;;;;;;8.25;6.00;;;;;;;;5048956;28;11544;-78
2021/11/29 01:41:27;;;;;;;;;2.00;2.00;;;;;;;;5044636;28;11679;-83
2021/11/29 01:43:55;;;;;;;;;1.00;1.00;;;;;;;;5046403;28;11615;-82
2021/11/29 01:46:22;;;;;;;;;2.00;2.00;;;;;;;;5041427;28;11535;-82
2021/11/29 01:48:50;;;;;;;;;3.75;2.00;;;;;;;;5045199;28;11671;-81
2021/11/29 01:51:18;;;;;;;;;5.00;5.00;;;;;;;;5030721;28;11695;-82
2021/11/29 01:53:46;;;;;;;;;7.75;4.00;;;;;;;;5047103;28;11704;-83
2021/11/29 01:56:14;;;;;;;;;5.50;5.00;;;;;;;;5025686;28;13137;-82
2021/11/29 01:58:42;;;;;;;;;4.00;4.00;;;;;;;;5049363;28;11624;-82
2021/11/29 02:01:14;;;;;;;;;2.00;2.00;;;;;;;;5044790;28;12270;-84
2021/11/29 02:03:42;;;;;;;;;2.50;2.50;;;;;;;;5038026;28;11558;-84
2021/11/29 02:06:10;;;;;;;;;2.00;2.00;;;;;;;;5043755;28;11569;-84
2021/11/29 02:08:37;;;;;;;;;3.75;3.75;;;;;;;;5043880;28;11594;-82
2021/11/29 02:11:05;;;;;;;;;1.50;1.50;;;;;;;;5044903;28;11592;-83
2021/11/29 02:13:34;;;;;;;;;4.00;4.00;;;;;;;;5044479;28;11594;-84
2021/11/29 02:16:01;;;;;;;;;4.25;4.00;;;;;;;;5029347;28;11665;-82
2021/11/29 02:18:32;;;;;;;;;8.00;5.00;;;;;;;;5045367;28;11539;-82
2021/11/29 02:21:14;;;;;;;;;3.00;2.50;;;;;;;;5042499;28;11565;-82
2021/11/29 02:23:43;;;;;;;;;4.00;4.00;;;;;;;;5043764;28;11563;-82
2021/11/29 02:26:12;;;;;;;;;5.00;2.50;;;;;;;;5049120;28;11577;-81
2021/11/29 02:28:41;;;;;;;;;4.00;4.00;;;;;;;;5044186;28;11519;-78
2021/11/29 02:31:10;;;;;;;;;2.00;2.00;;;;;;;;5044255;28;11474;-81
2021/11/29 02:33:37;;;;;;;;;6.00;4.25;;;;;;;;5047076;28;12341;-83
2021/11/29 02:36:06;;;;;;;;;4.00;4.00;;;;;;;;5044947;28;11508;-80
2021/11/29 02:38:34;;;;;;;;;5.50;4.50;;;;;;;;5030609;28;11633;-82
2021/11/29 02:41:02;;;;;;;;;5.75;5.75;;;;;;;;5043766;28;11696;-82
2021/11/29 02:43:30;;;;;;;;;4.00;4.00;;;;;;;;5042976;28;11562;-82
2021/11/29 02:45:57;;;;;;;;;5.00;5.00;;;;;;;;5044352;28;11601;-83
2021/11/29 02:48:43;;;;;;;;;2.50;2.50;;;;;;;;5043233;28;11615;-82
2021/11/29 02:51:21;;;;;;;;;3.00;3.00;;;;;;;;5038492;28;11617;-79
2021/11/29 02:53:49;;;;;;;;;1.00;1.00;;;;;;;;5037265;28;12407;-78
2021/11/29 02:56:17;;;;;;;;;6.00;4.50;;;;;;;;5041247;28;11581;-79
2021/11/29 02:58:45;;;;;;;;;4.00;4.00;;;;;;;;5044029;28;12309;-81
2021/11/29 03:01:12;;;;;;;;;2.00;2.00;;;;;;;;5042531;28;11639;-85
2021/11/29 03:03:47;;;;;;;;;4.25;4.25;;;;;;;;5043353;28;11597;-78
2021/11/29 03:06:14;;;;;;;;;4.00;4.00;;;;;;;;5028955;28;11580;-83
2021/11/29 03:08:44;;;;;;;;;3.25;2.00;;;;;;;;5052412;28;11570;-83
2021/11/29 03:11:11;;;;;;;;;1.75;1.50;;;;;;;;5045776;28;12301;-82
2021/11/29 03:13:39;;;;;;;;;3.00;1.75;;;;;;;;5048125;28;11547;-82
2021/11/29 03:16:06;;;;;;;;;2.00;1.00;;;;;;;;5052373;28;11608;-81
2021/11/29 03:18:36;;;;;;;;;1.50;1.50;;;;;;;;5042325;28;11595;-83
2021/11/29 03:21:04;;;;;;;;;2.25;2.25;;;;;;;;5042476;28;11546;-81
2021/11/29 03:23:32;;;;;;;;;2.00;2.00;;;;;;;;5045489;28;11535;-77
2021/11/29 03:26:01;;;;;;;;;4.00;2.00;;;;;;;;5044649;28;11785;-77
2021/11/29 03:28:28;;;;;;;;;2.00;2.00;;;;;;;;5045286;28;11598;-81
2021/11/29 03:30:55;;;;;;;;;4.25;2.00;;;;;;;;5041697;28;11512;-83
2021/11/29 03:33:23;;;;;;;;;4.00;4.00;;;;;;;;5025981;28;11609;-80
2021/11/29 03:35:50;;;;;;;;;4.00;4.00;;;;;;;;5043012;28;11598;-77
2021/11/29 03:38:18;;;;;;;;;1.75;1.75;;;;;;;;5044152;28;11596;-81
2021/11/29 03:40:45;;;;;;;;;5.00;5.00;;;;;;;;5026140;28;11572;-84
2021/11/29 03:43:14;;;;;;;;;3.50;2.00;;;;;;;;5042768;28;11581;-84
2021/11/29 03:45:42;;;;;;;;;0.00;0.00;;;;;;;;5043151;28;12265;-82
2021/11/29 03:48:11;;;;;;;;;2.00;2.00;;;;;;;;5044417;28;11570;-82
2021/11/29 03:50:38;;;;;;;;;6.00;2.00;;;;;;;;5042141;28;11565;-83
2021/11/29 03:53:05;;;;;;;;;3.50;3.50;;;;;;;;5050860;28;11608;-80
2021/11/29 03:55:33;;;;;;;;;3.00;3.00;;;;;;;;5051608;28;11710;-80
2021/11/29 03:58:00;;;;;;;;;3.50;3.50;;;;;;;;5041679;28;11655;-81
2021/11/29 04:00:29;;;;;;;;;4.00;4.00;;;;;;;;5042829;28;12229;-81
2021/11/29 04:02:56;;;;;;;;;4.25;4.25;;;;;;;;5044702;28;11712;-83
2021/11/29 04:05:24;;;;;;;;;6.75;5.00;;;;;;;;5047377;28;11547;-80
2021/11/29 04:07:51;;;;;;;;;8.00;5.25;;;;;;;;5048522;28;11630;-80
2021/11/29 04:10:19;;;;;;;;;6.75;3.75;;;;;;;;5040800;28;11586;-80
2021/11/29 04:12:46;;;;;;;;;6.50;4.75;;;;;;;;5025545;28;11588;-81
2021/11/29 04:15:13;;;;;;;;;8.00;5.00;;;;;;;;5046343;28;11676;-80
2021/11/29 04:17:42;;;;;;;;;4.00;4.00;;;;;;;;5043538;28;11557;-80
2021/11/29 04:20:14;;;;;;;;;6.75;5.25;;;;;;;;5025740;28;11554;-80
2021/11/29 04:22:44;;;;;;;;;4.50;4.00;;;;;;;;5045227;28;11704;-80
2021/11/29 04:25:13;;;;;;;;;3.50;3.50;;;;;;;;5051934;28;11584;-81
2021/11/29 04:27:42;;;;;;;;;3.00;3.00;;;;;;;;5044284;28;11646;-83
2021/11/29 04:30:12;;;;;;;;;4.00;1.00;;;;;;;;5034316;28;11695;-82
2021/11/29 04:32:42;;;;;;;;;8.00;4.75;;;;;;;;5043844;28;11541;-84
2021/11/29 04:35:09;;;;;;;;;4.00;4.00;;;;;;;;5045259;28;11704;-84
2021/11/29 04:37:37;;;;;;;;;4.50;4.50;;;;;;;;5027530;28;11555;-83
2021/11/29 04:40:06;;;;;;;;;6.25;5.00;;;;;;;;5052907;28;11581;-80
2021/11/29 04:42:34;;;;;;;;;5.00;5.00;;;;;;;;5045498;28;11591;-80
2021/11/29 04:45:02;;;;;;;;;6.75;4.00;;;;;;;;5045165;28;11635;-82
2021/11/29 04:47:29;;;;;;;;;2.00;2.00;;;;;;;;5047588;28;11591;-81
2021/11/29 04:49:58;;;;;;;;;3.50;0.00;;;;;;;;5040504;28;11584;-81
2021/11/29 04:52:25;;;;;;;;;8.50;7.25;;;;;;;;5051033;28;12332;-81
2021/11/29 04:54:52;;;;;;;;;7.00;7.00;;;;;;;;5034540;28;11544;-83
2021/11/29 04:57:20;;;;;;;;;8.00;5.50;;;;;;;;5047910;28;11596;-81
2021/11/29 04:59:47;;;;;;;;;6.00;6.00;;;;;;;;5027007;28;11615;-82
2021/11/29 05:02:14;;;;;;;;;5.00;5.00;;;;;;;;5045405;28;11524;-85
2021/11/29 05:04:45;;;;;;;;;4.75;4.75;;;;;;;;5045479;28;11553;-81
2021/11/29 05:07:14;;;;;;;;;11.00;5.50;;;;;;;;5034819;28;11639;-80
2021/11/29 05:09:42;;;;;;;;;5.00;5.00;;;;;;;;5053958;28;11561;-82
2021/11/29 05:12:10;;;;;;;;;5.00;5.00;;;;;;;;5048826;28;11572;-85
2021/11/29 05:14:38;;;;;;;;;11.33;9.00;;;;;;;;5049143;28;11572;-83
2021/11/29 05:17:05;;;;;;;;;7.50;7.00;;;;;;;;5027891;28;11665;-82
2021/11/29 05:19:33;;;;;;;;;7.50;5.00;;;;;;;;5042155;28;11567;-85
2021/11/29 05:22:00;;;;;;;;;5.00;5.00;;;;;;;;5046921;28;11550;-83
2021/11/29 05:24:29;;;;;;;;;6.25;4.00;;;;;;;;5052890;28;11558;-83
2021/11/29 05:26:56;;;;;;;;;6.75;5.00;;;;;;;;5046010;28;12250;-87
2021/11/29 05:29:24;;;;;;;;;7.25;5.00;;;;;;;;5020277;28;11664;-87
2021/11/29 05:31:51;;;;;;;;;7.00;4.00;;;;;;;;5040209;28;11659;-83
2021/11/29 05:34:18;;;;;;;;;6.50;4.50;;;;;;;;5036012;28;11576;-85
2021/11/29 05:36:46;;;;;;;;;1.75;1.75;;;;;;;;5041416;28;11564;-89
2021/11/29 05:39:15;;;;;;;;;2.00;2.00;;;;;;;;5048445;28;11575;-87
2021/11/29 05:41:44;;;;;;;;;5.00;5.00;;;;;;;;5040042;28;11650;-85
2021/11/29 05:44:12;;;;;;;;;2.50;2.50;;;;;;;;5035095;28;11627;-84
2021/11/29 05:46:39;;;;;;;;;5.00;5.00;;;;;;;;5028215;28;11676;-79
2021/11/29 05:49:07;;;;;;;;;8.00;4.00;;;;;;;;5038091;28;11684;-84
2021/11/29 05:51:34;;;;;;;;;4.50;4.50;;;;;;;;5042669;28;11541;-83
2021/11/29 05:54:02;;;;;;;;;8.50;4.00;;;;;;;;5036803;28;11581;-82
2021/11/29 05:56:29;;;;;;;;;7.50;5.00;;;;;;;;5038387;28;11601;-84
2021/11/29 05:58:58;;;;;;;;;4.25;4.25;;;;;;;;5025958;28;11565;-86
2021/11/29 06:01:25;;;;;;;;;5.00;5.00;;;;;;;;5045270;28;12287;-87
2021/11/29 06:03:53;;;;;;;;;6.00;4.75;;;;;;;;5035418;28;11543;-81
2021/11/29 06:06:21;;;;;;;;;4.00;4.00;;;;;;;;5037533;28;11581;-86
2021/11/29 06:08:48;;;;;;;;;7.75;5.00;;;;;;;;5036927;28;12298;-87
2021/11/29 06:11:15;;;;;;;;;3.00;3.00;;;;;;;;5041556;28;11737;-85
2021/11/29 06:13:43;;;;;;;;;2.00;2.00;;;;;;;;5038795;28;11599;-83
2021/11/29 06:16:11;;;;;;;;;4.00;3.50;;;;;;;;5040450;28;12487;-84
2021/11/29 06:18:39;;;;;;;;;6.00;4.25;;;;;;;;5044985;28;11585;-83
2021/11/29 06:21:06;;;;;;;;;5.00;5.00;;;;;;;;5038731;28;11560;-90
2021/11/29 06:23:34;;;;;;;;;7.00;5.00;;;;;;;;5040877;28;11559;-88
2021/11/29 06:26:01;;;;;;;;;1.50;1.50;;;;;;;;5045040;28;11556;-83
2021/11/29 06:28:28;;;;;;;;;3.50;3.50;;;;;;;;5033925;28;11578;-78
2021/11/29 06:30:56;;;;;;;;;4.25;4.25;;;;;;;;5038880;28;11530;-83
2021/11/29 06:33:25;;;;;;;;;5.50;5.50;;;;;;;;5032686;28;11618;-85
2021/11/29 06:35:53;;;;;;;;;3.75;3.75;;;;;;;;5039637;28;11556;-85
2021/11/29 06:38:21;;;;;;;;;3.50;3.50;;;;;;;;5032595;28;11573;-85
2021/11/29 06:40:50;;;;;;;;;5.00;5.00;;;;;;;;5026520;28;11569;-83
2021/11/29 06:43:18;;;;;;;;;5.25;5.25;;;;;;;;5037558;28;11548;-84
2021/11/29 06:45:46;;;;;;;;;5.75;5.75;;;;;;;;5024320;28;11644;-81
2021/11/29 06:48:13;;;;;;;;;7.00;5.75;;;;;;;;5040527;28;11633;-86
2021/11/29 06:50:42;;;;;;;;;7.50;7.50;;;;;;;;5063709;28;11568;-83
2021/11/29 06:53:10;;;;;;;;;7.50;7.50;;;;;;;;5048876;28;11602;-86
2021/11/29 06:55:38;;;;;;;;;6.25;5.50;;;;;;;;5036161;28;11587;-83
2021/11/29 06:58:05;;;;;;;;;6.00;6.00;;;;;;;;5036004;28;11664;-84
2021/11/29 07:00:33;;;;;;;;;8.00;5.25;;;;;;;;5020649;28;11577;-87
2021/11/29 07:03:01;;;;;;;;;5.00;5.00;;;;;;;;5039372;28;11545;-88
2021/11/29 07:05:29;;;;;;;;;5.50;5.50;;;;;;;;5037448;28;11572;-88
2021/11/29 07:07:58;;;;;;;;;5.25;5.00;;;;;;;;5031074;28;11582;-90
2021/11/29 07:10:28;;;;;;;;;7.00;7.00;;;;;;;;5036193;28;11582;-87
2021/11/29 07:12:56;;;;;;;;;12.00;10.00;;;;;;;;5040589;28;11561;-75
2021/11/29 07:15:25;;;;;;;;;11.50;8.75;;;;;;;;5041058;28;11552;-75
2021/11/29 07:17:53;;;;;;;;;10.25;8.00;;;;;;;;5017346;28;11564;-76
2021/11/29 07:20:21;;;;;;;;;14.00;14.00;;;;;;;;5014425;28;11576;-75
2021/11/29 07:22:48;;;;;;;;;10.50;10.50;;;;;;;;5041761;28;11825;-74
2021/11/29 07:25:18;;;;;;;;;11.25;10.75;;;;;;;;5040835;28;11618;-75
2021/11/29 07:27:46;;;;;;;;;12.50;10.50;;;;;;;;5025979;28;12394;-74
2021/11/29 07:30:15;;;;;;;;;10.75;10.50;;;;;;;;5047945;28;11575;-75
2021/11/29 07:32:42;;;;;;;;;8.75;8.75;;;;;;;;5042971;28;11560;-74
2021/11/29 07:35:10;;;;;;;;;8.00;8.00;;;;;;;;5027971;28;11562;-74
2021/11/29 07:37:38;;;;;;;;;8.75;6.00;;;;;;;;5044117;28;11604;-74
2021/11/29 07:40:07;;;;;;;;;12.25;12.25;;;;;;;;5046571;28;11620;-74
2021/11/29 07:42:36;;;;;;;;;6.00;6.00;;;;;;;;5047587;28;12304;-78
2021/11/29 07:45:04;;;;;;;;;8.50;8.25;;;;;;;;5042075;28;11589;-78
2021/11/29 07:47:32;;;;;;;;;10.00;8.50;;;;;;;;5051717;28;11694;-76
2021/11/29 07:50:00;;;;;;;;;10.00;10.00;;;;;;;;5054156;28;11546;-74
2021/11/29 07:52:27;;;;;;;;;9.50;9.50;;;;;;;;5047745;28;11655;-76
2021/11/29 07:54:54;;;;;;;;;11.50;8.75;;;;;;;;5044886;28;11599;-75
2021/11/29 07:57:22;;;;;;;;;12.50;11.00;;;;;;;;5046106;28;11551;-77
2021/11/29 07:59:51;;;;;;;;;8.00;8.00;;;;;;;;5062931;28;12369;-76
2021/11/29 08:02:18;;;;;;;;;14.00;13.00;;;;;;;;5052683;28;11629;-75
2021/11/29 08:04:46;;;;;;;;;14.25;12.00;;;;;;;;5031143;28;12370;-77
2021/11/29 08:07:16;;;;;;;;;9.50;8.75;;;;;;;;5031528;28;12309;-77
2021/11/29 08:09:43;;;;;;;;;11.25;11.00;;;;;;;;5018131;28;11540;-77
2021/11/29 08:12:11;;;;;;;;;12.50;12.50;;;;;;;;5031207;28;11497;-76
2021/11/29 08:14:39;;;;;;;;;12.00;12.00;;;;;;;;5020099;28;11610;-77
2021/11/29 08:17:07;;;;;;;;;15.25;12.50;;;;;;;;5021550;28;11673;-78
2021/11/29 08:19:35;;;;;;;;;11.75;11.75;;;;;;;;5027014;28;11717;-77
2021/11/29 08:22:02;;;;;;;;;15.00;12.25;;;;;;;;5030769;28;11656;-77
2021/11/29 08:24:29;;;;;;;;;12.00;11.00;;;;;;;;5026892;28;11623;-76
2021/11/29 08:26:57;;;;;;;;;12.00;12.00;;;;;;;;5018611;28;11714;-77
2021/11/29 08:29:24;;;;;;;;;12.50;12.50;;;;;;;;4988568;28;11535;-77
2021/11/29 08:31:51;;;;;;;;;11.50;11.50;;;;;;;;5020252;28;11487;-77
2021/11/29 08:34:21;;;;;;;;;12.50;12.50;;;;;;;;5024897;28;11601;-77
2021/11/29 08:36:48;;;;;;;;;10.25;10.25;;;;;;;;4997429;28;11581;-77
2021/11/29 08:39:15;;;;;;;;;14.25;11.00;;;;;;;;5029637;28;11591;-77
2021/11/29 08:41:43;;;;;;;;;16.50;13.75;;;;;;;;5022408;28;11661;-77
2021/11/29 08:44:11;;;;;;;;;13.75;13.75;;;;;;;;5013726;28;11546;-77
2021/11/29 08:46:47;;;;;;;;;11.50;11.50;;;;;;;;5003883;28;11687;-77
2021/11/29 08:49:15;;;;;;;;;9.00;9.00;;;;;;;;5029389;28;12478;-77
2021/11/29 08:51:44;;;;;;;;;17.25;13.00;;;;;;;;5005420;28;11506;-77
2021/11/29 08:54:12;;;;;;;;;14.50;12.00;;;;;;;;5018205;28;12307;-77
2021/11/29 08:56:40;;;;;;;;;12.00;12.00;;;;;;;;5021394;28;11551;-76
2021/11/29 08:59:08;;;;;;;;;9.00;9.00;;;;;;;;5019321;28;11561;-76
2021/11/29 09:01:35;;;;;;;;;11.25;11.25;;;;;;;;5012363;28;11564;-80
2021/11/29 09:04:03;;;;;;;;;12.50;11.00;;;;;;;;5000606;28;11565;-79
2021/11/29 09:06:30;;;;;;;;;11.50;10.00;;;;;;;;5021395;28;11639;-77
2021/11/29 09:08:59;;;;;;;;;10.50;9.25;;;;;;;;5036852;28;11647;-77
2021/11/29 09:11:27;;;;;;;;;11.50;9.00;;;;;;;;5043712;28;11566;-77
2021/11/29 09:13:54;;;;;;;;;12.00;12.00;;;;;;;;5019602;28;11618;-76
2021/11/29 09:16:22;;;;;;;;;15.50;13.00;;;;;;;;5045879;28;11587;-76
2021/11/29 09:18:49;;;;;;;;;10.75;10.25;;;;;;;;5042121;28;11729;-76
2021/11/29 09:21:19;;;;;;;;;17.50;11.75;;;;;;;;5044002;28;11579;-76
2021/11/29 09:23:47;;;;;;;;;16.75;13.50;;;;;;;;5045189;28;11066;-76
2021/11/29 09:26:16;;;;;;;;;14.50;11.00;;;;;;;;5023576;28;12424;-77
2021/11/29 09:28:44;;;;;;;;;16.25;11.75;;;;;;;;5036339;28;11593;-77
2021/11/29 09:31:12;;;;;;;;;15.00;14.50;;;;;;;;5024911;28;11537;-76
2021/11/29 09:33:39;;;;;;;;;13.00;11.50;;;;;;;;5039584;28;12385;-76
2021/11/29 09:36:07;;;;;;;;;21.75;16.50;;;;;;;;5038259;28;11695;-76
2021/11/29 09:38:35;;;;;;;;;17.00;17.00;;;;;;;;5050567;28;11769;-77
2021/11/29 09:41:03;;;;;;;;;17.25;17.25;;;;;;;;5042059;28;11627;-77
2021/11/29 09:43:32;;;;;;;;;16.50;16.50;;;;;;;;5041900;28;11612;-77
2021/11/29 09:45:59;;;;;;;;;17.00;13.00;;;;;;;;5049816;28;11630;-76
2021/11/29 09:48:26;;;;;;;;;16.00;13.25;;;;;;;;5039372;28;11071;-80
2021/11/29 09:50:55;;;;;;;;;17.25;17.25;;;;;;;;5039926;28;11641;-79
2021/11/29 09:53:25;;;;;;;;;18.50;13.00;;;;;;;;5031102;28;11652;-79
2021/11/29 09:55:52;;;;;;;;;17.25;13.00;;;;;;;;5034515;28;11749;-80
2021/11/29 09:58:20;;;;;;;;;15.75;13.25;;;;;;;;5039699;28;12568;-80
2021/11/29 10:00:51;;;;;;;;;12.50;10.75;;;;;;;;5030798;28;11562;-80
2021/11/29 10:03:19;;;;;;;;;13.50;13.50;;;;;;;;5026176;28;11604;-83
2021/11/29 10:05:47;;;;;;;;;12.00;12.00;;;;;;;;5040005;28;11702;-81
2021/11/29 10:08:19;;;;;;;;;15.50;14.50;;;;;;;;5030242;28;11599;-79
2021/11/29 10:10:48;;;;;;;;;14.25;14.25;;;;;;;;5039139;28;11638;-77
2021/11/29 10:13:16;;;;;;;;;12.00;12.00;;;;;;;;5033062;28;11620;-77
2021/11/29 10:15:44;;;;;;;;;14.00;13.00;;;;;;;;5042262;28;12975;-77
2021/11/29 10:18:15;;;;;;;;;14.75;12.00;;;;;;;;5040994;28;11598;-79
2021/11/29 10:21:01;;;;;;;;;16.00;13.00;;;;;;;;5039794;28;11583;-80
2021/11/29 10:23:32;;;;;;;;;11.50;10.50;;;;;;;;5037213;28;11589;-78
2021/11/29 10:26:00;;;;;;;;;13.75;12.25;;;;;;;;5017544;28;11626;-79
2021/11/29 10:28:31;;;;;;;;;18.50;16.75;;;;;;;;5040412;28;11688;-77
2021/11/29 10:31:12;;;;;;;;;18.00;14.00;;;;;;;;5037660;28;11645;-76
2021/11/29 10:34:05;;;;;;;;;17.25;11.50;;;;;;;;5037986;28;11780;-78
2021/11/29 10:36:34;;;;;;;;;15.75;14.00;;;;;;;;5027197;28;11619;-75
2021/11/29 10:39:09;;;;;;;;;16.75;14.00;;;;;;;;5044575;28;11582;-76
2021/11/29 10:41:38;;;;;;;;;13.75;13.50;;;;;;;;5024326;28;11712;-77
2021/11/29 10:44:09;;;;;;;;;12.00;12.00;;;;;;;;5041592;28;11608;-77
2021/11/29 10:46:38;;;;;;;;;12.25;10.25;;;;;;;;5036694;28;11721;-77
2021/11/29 10:49:12;;;;;;;;;15.50;12.25;;;;;;;;5038230;28;11532;-77
2021/11/29 10:51:40;;;;;;;;;14.25;10.00;;;;;;;;5041828;28;11564;-76
2021/11/29 10:54:10;;;;;;;;;15.25;12.50;;;;;;;;5032879;28;11568;-75
2021/11/29 10:56:40;;;;;;;;;17.50;17.50;;;;;;;;5048455;28;11534;-77
2021/11/29 10:59:09;;;;;;;;;14.00;14.00;;;;;;;;5039886;28;11548;-73
2021/11/29 11:01:39;;;;;;;;;17.25;14.00;;;;;;;;5031982;28;11541;-73
2021/11/29 11:04:11;;;;;;;;;11.75;11.75;;;;;;;;5040494;28;11571;-75
2021/11/29 11:06:41;;;;;;;;;11.25;11.25;;;;;;;;5043101;28;11531;-75
2021/11/29 11:09:14;;;;;;;;;12.25;12.25;;;;;;;;5034251;28;11600;-75
2021/11/29 11:11:44;;;;;;;;;13.75;13.75;;;;;;;;5040276;28;11571;-74
2021/11/29 11:14:14;;;;;;;;;8.75;8.00;;;;;;;;5039708;28;12390;-74
2021/11/29 11:16:50;;;;;;;;;9.25;9.25;;;;;;;;5034766;28;11521;-75
2021/11/29 11:19:29;;;;;;;;;11.50;11.00;;;;;;;;5030058;28;11539;-76
2021/11/29 11:21:59;;;;;;;;;6.50;5.25;;;;;;;;5036307;28;11496;-76
2021/11/29 11:24:29;;;;;;;;;10.50;10.50;;;;;;;;5017265;28;11535;-75
2021/11/29 11:26:58;;;;;;;;;15.00;13.00;;;;;;;;5045797;28;11553;-76
2021/11/29 11:29:36;;;;;;;;;12.00;12.00;;;;;;;;5039316;28;11626;-75
2021/11/29 11:32:31;;;;;;;;;12.75;12.75;;;;;;;;5038974;28;11187;-75
2021/11/29 11:35:04;;;;;;;;;15.75;13.50;;;;;;;;5000295;28;11246;-74
2021/11/29 11:37:33;;;;;;;;;10.75;9.25;;;;;;;;5040032;28;11167;-75
2021/11/29 11:40:01;;;;;;;;;11.75;10.50;;;;;;;;5040396;28;11132;-73
2021/11/29 11:42:28;;;;;;;;;9.50;9.50;;;;;;;;5032467;28;11067;-73
2021/11/29 11:44:57;;;;;;;;;9.75;8.50;;;;;;;;5037858;28;11264;-74
2021/11/29 11:47:27;;;;;;;;;10.25;10.25;;;;;;;;5035105;28;11081;-78
2021/11/29 11:49:55;;;;;;;;;12.00;9.00;;;;;;;;5036714;28;11267;-74
2021/11/29 11:52:23;;;;;;;;;9.75;9.75;;;;;;;;5040343;28;11277;-74
2021/11/29 11:54:57;;;;;;;;;10.00;8.00;;;;;;;;5047339;28;11579;-74
2021/11/29 11:57:26;;;;;;;;;7.00;7.00;;;;;;;;5038588;28;12174;-76
2021/11/29 12:00:14;;;;;;;;;8.75;6.50;;;;;;;;5033674;28;11548;-75
2021/11/29 12:03:07;;;;;;;;;11.50;10.00;;;;;;;;5038991;28;11446;-75
2021/11/29 12:05:37;;;;;;;;;11.50;9.25;;;;;;;;5033479;28;11526;-75
2021/11/29 12:08:30;;;;;;;;;6.00;4.25;;;;;;;;5034938;28;12144;-76
2021/11/29 12:10:57;;;;;;;;;8.00;8.00;;;;;;;;5037013;28;11565;-76
2021/11/29 12:13:25;;;;;;;;;5.25;5.25;;;;;;;;5039871;28;11513;-75
2021/11/29 12:15:55;;;;;;;;;6.50;6.00;;;;;;;;5034071;28;11536;-74
2021/11/29 12:18:45;;;;;;;;;9.00;9.00;;;;;;;;5037967;28;11558;-76
2021/11/29 12:21:17;;;;;;;;;5.00;5.00;;;;;;;;5010295;28;11536;-74
2021/11/29 12:23:50;;;;;;;;;8.50;8.50;;;;;;;;5037994;28;11266;-74
2021/11/29 12:26:17;;;;;;;;;8.00;8.00;;;;;;;;5040588;28;11641;-75
2021/11/29 12:28:47;;;;;;;;;10.00;6.75;;;;;;;;5044624;28;11499;-76
2021/11/29 12:31:38;;;;;;;;;5.50;5.50;;;;;;;;5030744;28;11474;-78
2021/11/29 12:34:11;;;;;;;;;12.75;7.25;;;;;;;;5021047;28;11107;-77
2021/11/29 12:37:10;;;;;;;;;5.50;5.50;;;;;;;;5043676;28;11287;-74
2021/11/29 12:40:06;;;;;;;;;5.75;5.75;;;;;;;;5043520;28;11972;-73
2021/11/29 12:42:54;;;;;;;;;5.00;5.00;;;;;;;;5042301;28;11495;-75
2021/11/29 12:45:24;;;;;;;;;5.75;5.00;;;;;;;;5065228;28;11081;-74
2021/11/29 12:47:55;;;;;;;;;3.50;3.50;;;;;;;;5036003;28;11087;-75
2021/11/29 12:50:32;;;;;;;;;5.00;5.00;;;;;;;;5038229;28;11778;-75
2021/11/29 12:53:11;;;;;;;;;3.00;3.00;;;;;;;;5044810;28;10791;-75
2021/11/29 12:55:41;;;;;;;;;3.00;3.00;;;;;;;;5040167;28;10722;-75
2021/11/29 12:58:33;;;;;;;;;2.75;2.75;;;;;;;;5042164;28;10729;-74
2021/11/29 13:01:18;;;;;;;;;5.00;5.00;;;;;;;;5037731;28;10570;-74
2021/11/29 13:03:48;;;;;;;;;5.75;3.50;;;;;;;;5039704;28;10733;-77
2021/11/29 13:06:15;;;;;;;;;2.50;2.00;;;;;;;;5041603;28;10649;-75
2021/11/29 13:08:45;;;;;;;;;5.00;2.00;;;;;;;;5043394;28;10598;-74
2021/11/29 13:11:25;;;;;;;;;6.50;5.00;;;;;;;;5040681;28;10717;-74
2021/11/29 13:13:54;;;;;;;;;6.00;6.00;;;;;;;;5039204;28;10649;-73
2021/11/29 13:16:40;;;;;;;;;3.00;3.00;;;;;;;;5045677;28;10751;-73
2021/11/29 13:19:13;;;;;;;;;2.50;2.50;;;;;;;;5046178;28;10522;-74
2021/11/29 13:21:43;;;;;;;;;3.50;3.50;;;;;;;;5044773;28;10475;-74
2021/11/29 13:24:14;;;;;;;;;2.00;2.00;;;;;;;;5046005;28;10379;-74
2021/11/29 13:26:47;;;;;;;;;2.50;2.50;;;;;;;;5044503;28;10423;-74
2021/11/29 13:29:19;;;;;;;;;2.00;2.00;;;;;;;;5045461;28;10498;-74
2021/11/29 13:31:50;;;;;;;;;2.00;2.00;;;;;;;;5044265;28;10374;-74
2021/11/29 13:34:32;;;;;;;;;2.50;2.50;;;;;;;;5036510;28;11308;-74
2021/11/29 13:37:00;;;;;;;;;1.75;1.75;;;;;;;;5065476;28;10497;-74
2021/11/29 13:39:30;;;;;;;;;5.00;3.00;;;;;;;;5052575;28;10624;-74
2021/11/29 13:42:24;;;;;;;;;2.00;2.00;;;;;;;;5045587;28;10574;-74
2021/11/29 13:44:57;;;;;;;;;2.00;2.00;;;;;;;;5031011;28;11295;-74
2021/11/29 13:47:27;;;;;;;;;3.00;2.00;;;;;;;;5044228;28;10595;-74
2021/11/29 13:50:02;;;;;;;;;3.00;3.00;;;;;;;;5045700;28;10591;-74
2021/11/29 13:52:30;;;;;;;;;2.50;2.50;;;;;;;;5044067;28;10556;-74
2021/11/29 13:54:59;;;;;;;;;5.25;5.25;;;;;;;;5045743;28;10600;-74
2021/11/29 13:57:33;;;;;;;;;7.75;6.00;;;;;;;;5044700;28;10789;-74
2021/11/29 14:00:23;;;;;;;;;2.50;2.50;;;;;;;;5038465;28;10754;-74
2021/11/29 14:03:09;;;;;;;;;2.50;1.00;;;;;;;;5045326;28;10615;-74
2021/11/29 14:05:38;;;;;;;;;2.00;2.00;;;;;;;;5043934;28;11332;-73
2021/11/29 14:08:07;;;;;;;;;1.00;0.50;;;;;;;;5042681;28;11387;-74
2021/11/29 14:10:41;;;;;;;;;4.00;4.00;;;;;;;;5044127;28;10412;-73
2021/11/29 14:13:13;;;;;;;;;2.00;2.00;;;;;;;;5044008;28;10731;-74
2021/11/29 14:15:59;;;;;;;;;2.50;2.50;;;;;;;;5044802;28;10656;-73
2021/11/29 14:18:29;;;;;;;;;3.50;3.50;;;;;;;;5055987;28;10751;-73
2021/11/29 14:21:01;;;;;;;;;4.25;2.00;;;;;;;;5058574;28;10938;-73
2021/11/29 14:23:43;;;;;;;;;2.00;2.00;;;;;;;;5044161;28;10822;-74
2021/11/29 14:26:13;;;;;;;;;2.00;2.00;;;;;;;;5044005;28;10655;-74
2021/11/29 14:28:43;;;;;;;;;6.25;4.25;;;;;;;;5026778;28;11444;-73
2021/11/29 14:31:12;;;;;;;;;3.00;3.00;;;;;;;;5042744;28;11259;-74
2021/11/29 14:33:41;;;;;;;;;3.00;3.00;;;;;;;;5041039;28;11460;-74
2021/11/29 14:36:44;;;;;;;;;2.50;2.50;;;;;;;;5042768;28;10729;-75
2021/11/29 14:39:13;;;;;;;;;3.00;3.00;;;;;;;;5041488;28;10721;-74
2021/11/29 14:41:52;;;;;;;;;4.50;2.00;;;;;;;;5044605;28;10526;-74
2021/11/29 14:44:23;;;;;;;;;2.25;2.25;;;;;;;;5043216;28;12071;-74
2021/11/29 14:46:51;;;;;;;;;4.50;2.00;;;;;;;;5043877;28;10423;-74
2021/11/29 14:49:30;;;;;;;;;4.50;3.00;;;;;;;;5043404;28;10450;-74
2021/11/29 14:52:10;;;;;;;;;5.00;2.75;;;;;;;;5028450;28;10481;-74